createdAt,value
2018-05-05T00:01:41.327Z,60.56
2018-05-05T00:04:07.095Z,60.90
2018-05-05T00:06:32.862Z,61.01
2018-05-05T00:08:58.627Z,60.93
2018-05-05T00:11:24.391Z,61.14
2018-05-05T00:13:50.156Z,61.26
2018-05-05T00:16:15.903Z,61.23
2018-05-05T00:18:41.687Z,61.31
2018-05-05T00:21:07.432Z,61.15
2018-05-05T00:23:33.203Z,61.15
2018-05-05T00:25:59.015Z,61.07
2018-05-05T00:28:24.776Z,61.36
2018-05-05T00:30:50.521Z,60.52
2018-05-05T00:33:16.294Z,60.68
2018-05-05T00:35:42.038Z,61.13
2018-05-05T00:38:07.812Z,61.27
2018-05-05T00:40:33.565Z,61.38
2018-05-05T00:42:59.342Z,61.53
2018-05-05T00:45:25.099Z,61.96
2018-05-05T00:47:50.847Z,62.34
2018-05-05T00:50:16.646Z,62.14
2018-05-05T00:52:42.460Z,61.95
2018-05-05T00:55:08.239Z,62.27
2018-05-05T00:57:34.043Z,62.13
2018-05-05T00:59:59.808Z,61.82
2018-05-05T01:02:25.576Z,61.60
2018-05-05T01:04:51.340Z,61.31
2018-05-05T01:07:17.166Z,60.94
2018-05-05T01:09:42.914Z,61.46
2018-05-05T01:12:08.689Z,61.25
2018-05-05T01:14:34.477Z,61.47
2018-05-05T01:17:00.246Z,61.67
2018-05-05T01:19:26.016Z,62.19
2018-05-05T01:21:51.768Z,62.74
2018-05-05T01:24:17.539Z,62.89
2018-05-05T01:26:43.304Z,63.14
2018-05-05T01:29:09.057Z,63.58
2018-05-05T01:31:34.799Z,63.34
2018-05-05T01:34:00.565Z,63.37
2018-05-05T01:36:26.310Z,63.58
2018-05-05T01:38:52.095Z,63.63
2018-05-05T01:41:17.867Z,63.04
2018-05-05T01:43:43.636Z,63.50
2018-05-05T01:46:09.408Z,63.56
2018-05-05T01:48:35.163Z,63.48
2018-05-05T01:51:00.984Z,63.88
2018-05-05T01:53:26.771Z,63.14
2018-05-05T01:55:52.525Z,62.95
2018-05-05T01:58:18.478Z,63.69
2018-05-05T02:00:44.247Z,62.71
2018-05-05T02:03:10.031Z,62.27
2018-05-05T02:05:35.812Z,62.03
2018-05-05T02:08:01.565Z,62.87
2018-05-05T02:10:27.340Z,63.18
2018-05-05T02:12:53.081Z,63.12
2018-05-05T02:15:18.872Z,62.85
2018-05-05T02:17:44.623Z,63.05
2018-05-05T02:20:10.403Z,63.31
2018-05-05T02:22:36.209Z,63.87
2018-05-05T02:25:02.029Z,64.21
2018-05-05T02:27:27.910Z,64.58
2018-05-05T02:29:53.638Z,64.87
2018-05-05T02:32:19.417Z,65.10
2018-05-05T02:34:45.235Z,65.22
2018-05-05T02:37:11.301Z,65.06
2018-05-05T02:39:37.049Z,64.67
2018-05-05T02:42:02.817Z,65.01
2018-05-05T02:44:28.620Z,65.36
2018-05-05T02:46:54.371Z,65.30
2018-05-05T02:49:20.147Z,64.92
2018-05-05T02:51:45.911Z,65.37
2018-05-05T02:54:11.682Z,66.00
2018-05-05T02:56:37.584Z,66.01
2018-05-05T02:59:03.424Z,66.18
2018-05-05T03:01:29.217Z,66.88
2018-05-05T03:03:54.988Z,66.99
2018-05-05T03:06:20.732Z,66.85
2018-05-05T03:08:46.511Z,68.65
2018-05-05T03:11:12.263Z,69.63
2018-05-05T03:13:38.028Z,70.15
2018-05-05T03:16:03.799Z,68.14
2018-05-05T03:18:29.555Z,67.97
2018-05-05T03:20:55.565Z,67.76
2018-05-05T03:23:21.356Z,66.88
2018-05-05T03:25:47.185Z,67.17
2018-05-05T03:28:12.939Z,67.15
2018-05-05T03:30:38.715Z,66.62
2018-05-05T03:33:04.506Z,66.71
2018-05-05T03:35:30.263Z,66.87
2018-05-05T03:37:56.056Z,67.17
2018-05-05T03:40:21.828Z,67.46
2018-05-05T03:42:47.607Z,67.20
2018-05-05T03:45:13.359Z,66.79
2018-05-05T03:47:39.138Z,67.07
2018-05-05T03:50:11.959Z,67.50
2018-05-05T03:52:37.738Z,67.74
2018-05-05T03:55:03.529Z,67.83
2018-05-05T03:57:29.586Z,68.04
2018-05-05T04:00:07.585Z,67.85
2018-05-05T04:02:45.821Z,67.50
2018-05-05T04:08:21.348Z,67.77
2018-05-05T04:10:47.131Z,67.80
2018-05-05T04:13:12.875Z,67.82
2018-05-05T04:15:38.675Z,67.92
2018-05-05T04:18:04.433Z,67.51
2018-05-05T04:20:30.192Z,67.37
2018-05-05T04:22:55.964Z,67.29
2018-05-05T04:25:21.723Z,67.43
2018-05-05T04:27:47.506Z,67.43
2018-05-05T04:30:13.307Z,67.38
2018-05-05T04:32:39.095Z,67.37
2018-05-05T04:35:04.844Z,67.03
2018-05-05T04:37:30.623Z,67.17
2018-05-05T04:39:56.367Z,67.04
2018-05-05T04:42:22.143Z,66.87
2018-05-05T04:44:47.907Z,66.79
2018-05-05T04:47:13.674Z,66.60
2018-05-05T04:49:39.424Z,66.44
2018-05-05T04:52:05.317Z,66.31
2018-05-05T04:54:31.094Z,65.99
2018-05-05T04:56:56.867Z,65.80
2018-05-05T04:59:22.633Z,65.50
2018-05-05T05:01:48.423Z,65.33
2018-05-05T05:04:14.188Z,65.37
2018-05-05T05:06:39.991Z,65.26
2018-05-05T05:09:05.826Z,65.01
2018-05-05T05:11:31.588Z,64.75
2018-05-05T05:13:57.360Z,64.62
2018-05-05T05:16:23.107Z,64.61
2018-05-05T05:18:48.879Z,64.75
2018-05-05T05:21:14.630Z,64.72
2018-05-05T05:23:40.399Z,64.57
2018-05-05T05:26:06.168Z,64.46
2018-05-05T05:28:31.931Z,63.87
2018-05-05T05:30:57.703Z,63.72
2018-05-05T05:33:23.521Z,63.33
2018-05-05T05:35:49.322Z,63.08
2018-05-05T05:38:15.070Z,62.58
2018-05-05T05:40:40.815Z,62.24
2018-05-05T05:43:06.616Z,61.68
2018-05-05T05:45:32.356Z,61.55
2018-05-05T05:47:58.139Z,61.27
2018-05-05T05:50:23.879Z,60.46
2018-05-05T05:52:49.863Z,60.01
2018-05-05T05:55:15.615Z,59.64
2018-05-05T05:57:41.407Z,59.17
2018-05-05T06:00:07.182Z,58.92
2018-05-05T06:02:32.923Z,58.71
2018-05-05T06:04:58.698Z,58.27
2018-05-05T06:07:24.447Z,57.74
2018-05-05T06:09:50.487Z,57.84
2018-05-05T06:12:16.231Z,57.26
2018-05-05T06:14:42.000Z,56.64
2018-05-05T06:17:07.759Z,55.79
2018-05-05T06:19:33.536Z,55.43
2018-05-05T06:21:59.295Z,55.46
2018-05-05T06:24:25.080Z,56.58
2018-05-05T06:26:50.838Z,55.94
2018-05-05T06:29:16.613Z,55.16
2018-05-05T06:31:42.364Z,54.07
2018-05-05T06:34:08.401Z,53.47
2018-05-05T06:36:34.179Z,52.38
2018-05-05T06:38:59.933Z,51.75
2018-05-05T06:41:25.699Z,51.53
2018-05-05T06:43:51.471Z,50.78
2018-05-05T06:46:17.226Z,50.82
2018-05-05T06:48:42.999Z,48.89
2018-05-05T06:51:08.799Z,48.68
2018-05-05T06:53:34.572Z,48.29
2018-05-05T06:56:00.318Z,47.87
2018-05-05T06:58:26.109Z,47.44
2018-05-05T07:00:51.899Z,46.68
2018-05-05T07:03:17.684Z,45.80
2018-05-05T07:05:43.444Z,45.20
2018-05-05T07:08:09.240Z,43.78
2018-05-05T07:10:35.441Z,43.26
2018-05-05T07:13:01.218Z,43.40
2018-05-05T07:15:27.034Z,42.38
2018-05-05T07:17:52.756Z,42.47
2018-05-05T07:20:18.558Z,42.75
2018-05-05T07:22:44.366Z,43.14
2018-05-05T07:25:10.150Z,42.42
2018-05-05T07:27:35.910Z,42.60
2018-05-05T07:30:01.780Z,42.52
2018-05-05T07:32:27.552Z,42.08
2018-05-05T07:34:53.354Z,42.48
2018-05-05T07:37:19.099Z,42.60
2018-05-05T07:39:44.890Z,42.53
2018-05-05T07:42:10.660Z,42.18
2018-05-05T07:44:36.440Z,41.58
2018-05-05T07:47:02.193Z,42.06
2018-05-05T07:49:27.983Z,43.17
2018-05-05T07:51:53.745Z,42.54
2018-05-05T07:54:19.501Z,43.40
2018-05-05T07:56:45.300Z,42.59
2018-05-05T07:59:11.061Z,43.29
2018-05-05T08:01:36.817Z,43.38
2018-05-05T08:04:02.643Z,43.64
2018-05-05T08:06:28.423Z,43.74
2018-05-05T08:08:54.198Z,44.52
2018-05-05T08:11:20.123Z,44.47
2018-05-05T08:13:46.256Z,44.47
2018-05-05T08:16:12.028Z,44.65
2018-05-05T08:18:37.793Z,44.49
2018-05-05T08:21:03.554Z,44.37
2018-05-05T08:23:29.368Z,43.97
2018-05-05T08:25:55.129Z,43.81
2018-05-05T08:28:20.899Z,43.35
2018-05-05T08:30:46.675Z,43.03
2018-05-05T08:33:12.432Z,43.51
2018-05-05T08:35:38.226Z,43.43
2018-05-05T08:38:03.992Z,43.30
2018-05-05T08:40:29.792Z,43.41
2018-05-05T08:42:55.554Z,42.57
2018-05-05T08:45:21.346Z,42.13
2018-05-05T08:47:47.092Z,41.78
2018-05-05T08:50:12.867Z,41.64
2018-05-05T08:52:38.631Z,41.02
2018-05-05T08:55:04.416Z,40.58
2018-05-05T08:57:30.186Z,40.88
2018-05-05T08:59:56.015Z,40.60
2018-05-05T09:02:21.789Z,40.73
2018-05-05T09:04:47.531Z,40.40
2018-05-05T09:07:13.325Z,40.65
2018-05-05T09:09:39.088Z,40.54
2018-05-05T09:12:04.893Z,39.61
2018-05-05T09:14:30.643Z,39.32
2018-05-05T09:16:56.410Z,39.28
2018-05-05T09:19:22.155Z,38.77
2018-05-05T09:21:47.966Z,38.85
2018-05-05T09:24:14.060Z,38.23
2018-05-05T09:26:39.860Z,38.65
2018-05-05T09:29:05.611Z,39.14
2018-05-05T09:31:31.436Z,38.97
2018-05-05T09:33:57.261Z,38.46
2018-05-05T09:36:23.264Z,38.89
2018-05-05T09:38:49.023Z,39.49
2018-05-05T09:41:15.095Z,38.92
2018-05-05T09:43:40.854Z,38.98
2018-05-05T09:46:06.694Z,39.58
2018-05-05T09:48:32.954Z,38.38
2018-05-05T09:50:58.671Z,38.97
2018-05-05T09:53:24.476Z,39.25
2018-05-05T09:55:50.247Z,39.44
2018-05-05T09:58:16.054Z,38.62
2018-05-05T10:00:41.839Z,38.52
2018-05-05T10:03:07.594Z,38.66
2018-05-05T10:05:33.379Z,38.75
2018-05-05T10:07:59.111Z,38.04
2018-05-05T10:10:24.879Z,37.59
2018-05-05T10:12:50.668Z,36.22
2018-05-05T10:15:16.436Z,37.57
2018-05-05T10:17:42.228Z,36.10
2018-05-05T10:20:07.988Z,36.53
2018-05-05T10:22:34.014Z,37.15
2018-05-05T10:24:59.811Z,37.22
2018-05-05T10:27:25.571Z,35.84
2018-05-05T10:29:51.387Z,35.60
2018-05-05T10:32:17.167Z,36.03
2018-05-05T10:34:42.961Z,35.38
2018-05-05T10:37:08.712Z,35.85
2018-05-05T10:39:34.475Z,36.02
2018-05-05T10:42:00.239Z,36.37
2018-05-05T10:44:25.995Z,36.26
2018-05-05T10:46:51.835Z,35.47
2018-05-05T10:49:17.609Z,35.47
2018-05-05T10:51:43.394Z,35.08
2018-05-05T10:54:09.351Z,34.31
2018-05-05T10:56:35.139Z,33.86
2018-05-05T10:59:01.280Z,34.50
2018-05-05T11:01:27.138Z,34.58
2018-05-05T11:03:52.835Z,33.08
2018-05-05T11:06:18.619Z,33.39
2018-05-05T11:08:44.358Z,34.00
2018-05-05T11:11:10.135Z,34.00
2018-05-05T11:13:35.889Z,34.31
2018-05-05T11:16:01.652Z,34.71
2018-05-05T11:18:27.416Z,33.93
2018-05-05T11:20:53.171Z,33.63
2018-05-05T11:23:18.948Z,33.98
2018-05-05T11:25:44.724Z,31.83
2018-05-05T11:28:10.503Z,31.58
2018-05-05T11:30:36.262Z,32.62
2018-05-05T11:33:02.016Z,33.45
2018-05-05T11:35:27.772Z,33.75
2018-05-05T11:37:53.507Z,32.15
2018-05-05T11:40:19.292Z,32.76
2018-05-05T11:42:45.064Z,33.69
2018-05-05T11:45:10.864Z,33.25
2018-05-05T11:47:36.628Z,33.96
2018-05-05T11:50:02.400Z,32.05
2018-05-05T11:52:28.142Z,31.73
2018-05-05T11:54:53.936Z,31.10
2018-05-05T11:57:19.696Z,31.39
2018-05-05T11:59:45.613Z,30.88
2018-05-05T12:02:11.405Z,31.30
2018-05-05T12:04:37.144Z,31.28
2018-05-05T12:07:02.899Z,31.44
2018-05-05T12:09:28.674Z,31.40
2018-05-05T12:11:54.446Z,31.15
2018-05-05T12:14:20.183Z,31.87
2018-05-05T12:16:45.956Z,31.53
2018-05-05T12:19:11.738Z,31.05
2018-05-05T12:21:37.533Z,31.41
2018-05-05T12:24:03.293Z,31.35
2018-05-05T12:26:29.080Z,30.56
2018-05-05T12:28:54.835Z,31.65
2018-05-05T12:31:20.615Z,31.01
2018-05-05T12:33:46.414Z,30.33
2018-05-05T12:36:12.184Z,30.74
2018-05-05T12:38:37.931Z,32.32
2018-05-05T12:41:03.723Z,31.45
2018-05-05T12:43:29.467Z,31.37
2018-05-05T12:45:55.243Z,31.36
2018-05-05T12:48:21.004Z,30.95
2018-05-05T12:50:46.767Z,31.09
2018-05-05T12:53:12.539Z,30.20
2018-05-05T12:55:38.306Z,31.56
2018-05-05T12:58:04.068Z,31.25
2018-05-05T13:00:30.157Z,31.55
2018-05-05T13:02:55.914Z,30.36
2018-05-05T13:05:21.709Z,30.29
2018-05-05T13:07:47.467Z,30.15
2018-05-05T13:10:13.243Z,31.43
2018-05-05T13:12:39.004Z,31.42
2018-05-05T13:15:04.818Z,30.97
2018-05-05T13:17:30.566Z,30.75
2018-05-05T13:19:56.343Z,30.03
2018-05-05T13:22:22.111Z,30.77
2018-05-05T13:24:47.883Z,30.40
2018-05-05T13:27:13.674Z,30.14
2018-05-05T13:29:39.471Z,29.46
2018-05-05T13:32:05.239Z,28.85
2018-05-05T13:34:30.990Z,30.37
2018-05-05T13:36:56.767Z,29.77
2018-05-05T13:39:22.815Z,29.80
2018-05-05T13:41:48.589Z,29.65
2018-05-05T13:44:14.336Z,29.71
2018-05-05T13:46:40.125Z,29.09
2018-05-05T13:49:05.871Z,29.62
2018-05-05T13:51:31.647Z,29.56
2018-05-05T13:53:57.419Z,29.61
2018-05-05T13:56:23.227Z,29.00
2018-05-05T13:58:49.003Z,28.24
2018-05-05T14:01:14.776Z,28.90
2018-05-05T14:03:40.514Z,28.56
2018-05-05T14:06:06.304Z,29.00
2018-05-05T14:08:32.089Z,28.57
2018-05-05T14:10:57.827Z,28.90
2018-05-05T14:13:23.598Z,28.72
2018-05-05T14:15:49.371Z,29.13
2018-05-05T14:18:15.139Z,29.21
2018-05-05T14:20:40.891Z,28.98
2018-05-05T14:23:06.712Z,28.62
2018-05-05T14:25:32.532Z,28.47
2018-05-05T14:27:58.359Z,28.33
2018-05-05T14:30:24.131Z,28.34
2018-05-05T14:32:49.903Z,28.74
2018-05-05T14:35:15.724Z,28.32
2018-05-05T14:37:41.488Z,28.96
2018-05-05T14:40:07.230Z,29.53
2018-05-05T14:42:32.991Z,29.81
2018-05-05T14:44:58.761Z,29.71
2018-05-05T14:47:24.518Z,29.45
2018-05-05T14:49:50.407Z,29.45
2018-05-05T14:52:16.254Z,29.44
2018-05-05T14:54:42.028Z,29.62
2018-05-05T14:57:08.066Z,29.70
2018-05-05T14:59:33.827Z,30.22
2018-05-05T15:01:59.601Z,29.99
2018-05-05T15:04:25.358Z,30.34
2018-05-05T15:06:51.143Z,30.29
2018-05-05T15:09:16.882Z,30.47
2018-05-05T15:11:42.659Z,30.43
2018-05-05T15:14:08.425Z,31.36
2018-05-05T15:16:34.187Z,31.66
2018-05-05T15:19:00.834Z,31.21
2018-05-05T15:21:26.712Z,31.26
2018-05-05T15:23:52.515Z,31.59
2018-05-05T15:26:18.289Z,31.77
2018-05-05T15:28:44.066Z,32.51
2018-05-05T15:31:09.819Z,32.10
2018-05-05T15:33:35.595Z,32.31
2018-05-05T15:36:01.346Z,32.40
2018-05-05T15:38:27.684Z,31.49
2018-05-05T15:40:53.435Z,31.86
2018-05-05T15:43:19.213Z,31.85
2018-05-05T15:45:45.033Z,31.60
2018-05-05T15:48:10.781Z,31.61
2018-05-05T15:50:36.564Z,32.04
2018-05-05T15:53:02.396Z,32.13
2018-05-05T15:55:28.156Z,31.93
2018-05-05T15:57:54.015Z,32.57
2018-05-05T16:00:19.784Z,32.54
2018-05-05T16:02:45.795Z,32.98
2018-05-05T16:05:11.548Z,32.97
2018-05-05T16:07:37.713Z,31.99
2018-05-05T16:10:03.478Z,32.57
2018-05-05T16:12:29.290Z,32.35
2018-05-05T16:14:55.036Z,32.41
2018-05-05T16:17:20.795Z,32.68
2018-05-05T16:19:46.555Z,32.96
2018-05-05T16:22:12.340Z,32.88
2018-05-05T16:24:38.138Z,32.92
2018-05-05T16:27:03.898Z,33.00
2018-05-05T16:29:29.663Z,33.10
2018-05-05T16:31:55.432Z,32.99
2018-05-05T16:34:21.203Z,33.14
2018-05-05T16:36:46.962Z,33.27
2018-05-05T16:39:12.759Z,33.02
2018-05-05T16:41:38.543Z,32.83
2018-05-05T16:44:04.334Z,32.95
2018-05-05T16:46:30.079Z,33.09
2018-05-05T16:48:55.839Z,33.42
2018-05-05T16:51:21.590Z,33.55
2018-05-05T16:53:47.368Z,33.81
2018-05-05T16:56:13.163Z,33.99
2018-05-05T16:58:38.992Z,34.36
2018-05-05T17:01:04.752Z,34.06
2018-05-05T17:03:30.551Z,34.43
2018-05-05T17:05:56.298Z,34.43
2018-05-05T17:08:22.087Z,34.72
2018-05-05T17:10:47.826Z,34.60
2018-05-05T17:13:13.632Z,34.51
2018-05-05T17:15:39.384Z,34.49
2018-05-05T17:18:05.167Z,34.71
2018-05-05T17:20:30.923Z,34.86
2018-05-05T17:22:56.704Z,35.26
2018-05-05T17:25:22.480Z,35.19
2018-05-05T17:27:48.231Z,35.43
2018-05-05T17:30:13.987Z,35.26
2018-05-05T17:32:39.787Z,35.40
2018-05-05T17:35:05.581Z,35.55
2018-05-05T17:37:31.327Z,35.18
2018-05-05T17:39:57.088Z,35.43
2018-05-05T17:42:22.854Z,35.63
2018-05-05T17:44:48.647Z,35.85
2018-05-05T17:47:14.420Z,35.72
2018-05-05T17:49:40.231Z,35.61
2018-05-05T17:52:05.998Z,35.88
2018-05-05T17:54:31.832Z,35.92
2018-05-05T17:56:57.571Z,36.18
2018-05-05T17:59:23.520Z,36.21
2018-05-05T18:01:49.343Z,36.23
2018-05-05T18:04:15.174Z,36.25
2018-05-05T18:06:40.942Z,36.53
2018-05-05T18:09:06.738Z,36.82
2018-05-05T18:11:32.479Z,36.93
2018-05-05T18:13:58.298Z,37.14
2018-05-05T18:16:24.047Z,37.36
2018-05-05T18:18:49.837Z,37.50
2018-05-05T18:21:15.619Z,37.74
2018-05-05T18:23:41.370Z,38.02
2018-05-05T18:26:07.144Z,38.41
2018-05-05T18:28:32.906Z,38.75
2018-05-05T18:30:58.679Z,39.11
2018-05-05T18:33:24.451Z,39.37
2018-05-05T18:35:50.191Z,40.01
2018-05-05T18:38:16.160Z,40.39
2018-05-05T18:40:41.976Z,41.07
2018-05-05T18:43:07.835Z,41.78
2018-05-05T18:45:33.580Z,42.09
2018-05-05T18:47:59.358Z,42.66
2018-05-05T18:50:25.244Z,42.94
2018-05-05T18:52:51.028Z,43.39
2018-05-05T18:55:17.307Z,43.45
2018-05-05T18:57:43.061Z,43.86
2018-05-05T19:00:08.870Z,44.03
2018-05-05T19:02:34.644Z,44.37
2018-05-05T19:05:00.435Z,44.46
2018-05-05T19:07:26.189Z,44.62
2018-05-05T19:09:52.041Z,44.88
2018-05-05T19:12:17.824Z,45.10
2018-05-05T19:14:43.583Z,45.36
2018-05-05T19:17:09.335Z,45.52
2018-05-05T19:19:35.106Z,45.84
2018-05-05T19:22:00.863Z,46.13
2018-05-05T19:24:26.655Z,46.23
2018-05-05T19:26:52.477Z,46.38
2018-05-05T19:29:18.159Z,46.62
2018-05-05T19:31:44.056Z,46.68
2018-05-05T19:34:10.093Z,46.92
2018-05-05T19:36:35.923Z,47.22
2018-05-05T19:39:01.727Z,47.35
2018-05-05T19:41:27.499Z,47.54
2018-05-05T19:43:53.363Z,47.81
2018-05-05T19:46:19.148Z,48.08
2018-05-05T19:48:44.910Z,48.22
2018-05-05T19:51:10.696Z,48.30
2018-05-05T19:53:36.455Z,48.61
2018-05-05T19:56:02.236Z,48.93
2018-05-05T19:58:28.015Z,49.02
2018-05-05T20:00:53.801Z,49.15
2018-05-05T20:03:19.550Z,49.33
2018-05-05T20:05:45.375Z,49.45
2018-05-05T20:08:11.118Z,49.67
2018-05-05T20:10:36.905Z,49.79
2018-05-05T20:13:02.660Z,49.97
2018-05-05T20:15:28.426Z,50.19
2018-05-05T20:17:54.172Z,50.29
2018-05-05T20:20:19.983Z,50.67
2018-05-05T20:22:45.979Z,51.02
2018-05-05T20:25:11.775Z,51.25
2018-05-05T20:27:37.533Z,51.54
2018-05-05T20:30:03.345Z,51.67
2018-05-05T20:32:29.299Z,51.80
2018-05-05T20:34:55.076Z,52.06
2018-05-05T20:37:20.874Z,52.25
2018-05-05T20:39:46.651Z,52.22
2018-05-05T20:42:12.383Z,52.28
2018-05-05T20:44:38.170Z,52.35
2018-05-05T20:47:03.936Z,52.52
2018-05-05T20:49:29.705Z,52.78
2018-05-05T20:51:55.497Z,52.91
2018-05-05T20:54:21.247Z,53.05
2018-05-05T20:56:47.049Z,53.21
2018-05-05T20:59:13.130Z,53.43
2018-05-05T21:01:39.802Z,53.68
2018-05-05T21:04:05.564Z,54.02
2018-05-05T21:06:31.357Z,53.93
2018-05-05T21:08:57.103Z,54.05
2018-05-05T21:11:22.893Z,54.22
2018-05-05T21:13:48.639Z,54.37
2018-05-05T21:16:14.411Z,54.47
2018-05-05T21:18:40.147Z,54.53
2018-05-05T21:21:06.025Z,54.71
2018-05-05T21:23:31.729Z,55.01
2018-05-05T21:25:57.512Z,55.20
2018-05-05T21:28:23.264Z,55.18
2018-05-05T21:30:49.231Z,55.17
2018-05-05T21:33:15.019Z,55.38
2018-05-05T21:35:40.787Z,55.76
2018-05-05T21:38:06.560Z,56.19
2018-05-05T21:40:32.568Z,56.28
2018-05-05T21:42:58.339Z,56.64
2018-05-05T21:45:24.099Z,56.87
2018-05-05T21:47:49.856Z,57.28
2018-05-05T21:50:15.634Z,57.13
2018-05-05T21:52:41.391Z,57.00
2018-05-05T21:55:07.162Z,57.37
2018-05-05T21:57:32.928Z,57.77
2018-05-05T21:59:58.696Z,57.93
2018-05-05T22:02:24.465Z,58.00
2018-05-05T22:04:51.123Z,58.12
2018-05-05T22:07:16.948Z,58.50
2018-05-05T22:09:42.695Z,58.70
2018-05-05T22:12:08.500Z,59.03
2018-05-05T22:14:34.244Z,58.95
2018-05-05T22:17:00.035Z,59.22
2018-05-05T22:19:25.842Z,59.53
2018-05-05T22:21:51.615Z,59.77
2018-05-05T22:24:17.382Z,59.86
2018-05-05T22:26:43.132Z,60.08
2018-05-05T22:29:08.887Z,60.28
2018-05-05T22:31:34.647Z,60.52
2018-05-05T22:34:00.487Z,60.72
2018-05-05T22:36:26.278Z,60.83
2018-05-05T22:38:52.023Z,61.08
2018-05-05T22:41:17.779Z,61.38
2018-05-05T22:43:43.554Z,61.64
2018-05-05T22:46:09.467Z,61.64
2018-05-05T22:48:35.263Z,61.83
2018-05-05T22:51:01.048Z,62.04
2018-05-05T22:53:26.808Z,62.15
2018-05-05T22:55:52.571Z,62.31
2018-05-05T22:58:18.615Z,62.56
2018-05-05T23:00:44.361Z,62.79
2018-05-05T23:03:10.142Z,63.19
2018-05-05T23:05:35.923Z,63.52
2018-05-05T23:08:01.835Z,63.53
2018-05-05T23:10:27.607Z,63.73
2018-05-05T23:12:53.380Z,63.85
2018-05-05T23:15:19.145Z,64.01
2018-05-05T23:17:44.895Z,64.29
2018-05-05T23:20:10.705Z,64.37
2018-05-05T23:22:36.494Z,64.45
2018-05-05T23:25:02.268Z,64.57
2018-05-05T23:27:28.088Z,64.71
2018-05-05T23:29:53.857Z,64.92
2018-05-05T23:32:19.617Z,65.08
2018-05-05T23:34:45.385Z,65.15
2018-05-05T23:37:11.140Z,65.35
2018-05-05T23:39:36.911Z,65.58
2018-05-05T23:42:02.676Z,65.64
2018-05-05T23:44:28.448Z,65.79
2018-05-05T23:46:54.216Z,65.92
2018-05-05T23:49:19.992Z,66.20
2018-05-05T23:51:45.768Z,66.14
2018-05-05T23:54:11.539Z,66.13
2018-05-05T23:56:37.296Z,66.29
2018-05-05T23:59:03.183Z,66.46
